Madoc, Canada
Current Conditions -  °F | °C
As of 1:00 AM on Monday 24 Nov 2014 (Local Time) from CYTR Reporting Station
Overcast Overcast  
Wind Chill: 50°   Ceiling: 7500
Heat Index: 50°   Visibility: 15mi
Dew Point: 39°   Wind: 6mph
Humidity: 66%   Direction: 110°ESE
Pressure: 29.62"   Gusts: NA
Location:  44.52°N, 77.48°W
Report Text: CYTR 240600Z 11005KT 15SM OVC075 10/04 A2962 RMK AC8 PRESFR SLP034
Loading
Personal Weather Stations






























Interactive Weather Map New forecast layout! Learn more

10-Day Weather Forecast

Advertisements
Track Severe Weather on mobile